Time;durP1;ratioP1;P1;durP2;ratioP2;P2;SDS_P1;SDS_P2;PMS_P1;PMS_P2;Temp;Humidity;BMP_temperature;BMP_pressure;BME280_temperature;BME280_humidity;BME280_pressure;Samples;Min_cycle;Max_cycle;Signal;HPM_P1;HPM_P2
2023/12/16 00:02:01;;;;;;;13.95;7.62;;;;;;;2.92;55.82;101717.94;7984711;26;37922;-79
2023/12/16 00:06:24;;;;;;;15.00;7.93;;;;;;;2.84;55.83;101709.88;7710807;32;40109;-76
2023/12/16 00:10:41;;;;;;;17.40;7.70;;;;;;;3.04;54.87;101717.56;7712138;32;39910;-79
2023/12/16 00:14:57;;;;;;;12.80;7.00;;;;;;;3.03;54.63;101723.97;7711982;32;38424;-79
2023/12/16 00:19:14;;;;;;;13.88;8.15;;;;;;;3.11;54.64;101705.06;7711982;32;37191;-79
2023/12/16 00:23:30;;;;;;;14.43;7.45;;;;;;;3.00;54.99;101704.44;7712741;32;40133;-79
2023/12/16 00:27:47;;;;;;;12.40;7.43;;;;;;;3.00;54.98;101709.84;7710855;32;39863;-79
2023/12/16 00:32:03;;;;;;;12.55;7.12;;;;;;;2.87;55.42;101714.94;7712703;32;38528;-79
2023/12/16 00:36:19;;;;;;;18.40;7.82;;;;;;;2.92;55.40;101728.72;7712003;32;36822;-79
2023/12/16 00:40:36;;;;;;;12.88;7.40;;;;;;;3.01;55.09;101726.84;7711846;32;40058;-80
2023/12/16 00:44:52;;;;;;;12.20;7.65;;;;;;;3.19;54.61;101742.75;7736763;32;40016;-78
2023/12/16 00:49:08;;;;;;;13.57;7.43;;;;;;;3.01;54.89;101733.06;7738474;32;38792;-79
2023/12/16 00:53:25;;;;;;;17.45;7.93;;;;;;;2.99;55.17;101735.09;7738604;32;38403;-80
2023/12/16 00:57:41;;;;;;;17.40;7.72;;;;;;;3.08;54.98;101735.06;7738543;32;39015;-79
2023/12/16 01:01:59;;;;;;;12.75;8.00;;;;;;;2.85;55.52;101737.69;7736461;32;40846;-80
2023/12/16 01:06:16;;;;;;;17.12;8.82;;;;;;;2.61;56.22;101740.25;7738187;32;37978;-81
2023/12/16 01:10:32;;;;;;;14.07;8.82;;;;;;;2.73;56.27;101743.44;7738297;32;37168;-80
2023/12/16 01:14:49;;;;;;;14.95;7.53;;;;;;;2.75;56.52;101754.03;7738405;32;40194;-80
2023/12/16 01:19:05;;;;;;;12.23;6.90;;;;;;;2.71;56.20;101741.91;7738160;32;39679;-81
2023/12/16 01:23:22;;;;;;;12.30;7.62;;;;;;;2.66;56.37;101733.50;7723164;32;38711;-81
2023/12/16 01:27:39;;;;;;;12.88;7.20;;;;;;;2.55;56.53;101762.50;7711135;32;37854;-80
2023/12/16 01:31:56;;;;;;;15.23;7.68;;;;;;;2.54;56.65;101758.09;7711118;32;40150;-78
2023/12/16 01:36:12;;;;;;;15.57;7.20;;;;;;;2.72;56.23;101760.59;7711015;32;40840;-79
2023/12/16 01:40:28;;;;;;;13.65;7.68;;;;;;;2.67;56.34;101751.34;7710571;32;37750;-80
2023/12/16 01:44:45;;;;;;;16.98;7.22;;;;;;;2.66;56.25;101744.25;7733667;32;37235;-80
2023/12/16 01:49:02;;;;;;;12.60;7.32;;;;;;;2.67;56.10;101740.56;7737611;32;39248;-80
2023/12/16 01:53:18;;;;;;;13.88;7.68;;;;;;;2.81;55.62;101731.78;7737549;32;39956;-81
2023/12/16 01:57:35;;;;;;;13.40;7.43;;;;;;;2.62;55.94;101723.09;7737461;32;37818;-80
2023/12/16 02:01:52;;;;;;;14.10;7.90;;;;;;;2.72;55.73;101741.72;7728545;32;37239;-81
2023/12/16 02:06:08;;;;;;;14.87;8.27;;;;;;;2.67;55.86;101748.66;7710515;32;39529;-80
2023/12/16 02:10:25;;;;;;;13.88;8.07;;;;;;;2.60;55.84;101746.66;7710325;32;40899;-81
2023/12/16 02:14:41;;;;;;;14.70;6.90;;;;;;;2.62;55.86;101763.47;7710403;32;37634;-81
2023/12/16 02:18:58;;;;;;;15.73;8.18;;;;;;;2.87;54.99;101768.81;7710276;32;36908;-81
2023/12/16 02:23:18;;;;;;;17.35;7.95;;;;;;;2.67;55.59;101775.59;7724759;32;40326;-80
2023/12/16 02:27:34;;;;;;;14.57;7.55;;;;;;;2.49;56.23;101776.63;7736687;32;40907;-81
2023/12/16 02:31:51;;;;;;;12.98;7.53;;;;;;;2.21;57.37;101771.59;7736562;32;38711;-81
2023/12/16 02:36:07;;;;;;;14.57;8.52;;;;;;;2.29;57.25;101789.56;7736567;32;37659;-81
2023/12/16 02:40:24;;;;;;;12.40;6.82;;;;;;;2.38;57.20;101795.78;7735137;32;39513;-81
2023/12/16 02:44:40;;;;;;;13.20;7.72;;;;;;;2.50;57.15;101805.25;7726436;32;40836;-82
2023/12/16 02:48:56;;;;;;;12.10;7.35;;;;;;;2.30;58.57;101811.97;7709291;32;37861;-80
2023/12/16 02:53:13;;;;;;;17.25;7.97;;;;;;;2.50;57.56;101804.38;7712628;32;37820;-81
2023/12/16 02:57:29;;;;;;;16.85;8.45;;;;;;;2.27;57.97;101798.84;7713100;32;40034;-81
2023/12/16 03:01:45;;;;;;;14.65;8.30;;;;;;;2.09;58.22;101813.28;7712655;32;41291;-81
2023/12/16 03:06:08;;;;;;;17.00;8.48;;;;;;;2.00;58.49;101808.88;7712752;32;37809;-81
2023/12/16 03:10:24;;;;;;;15.02;8.25;;;;;;;2.30;57.54;101806.59;7730722;32;37087;-80
2023/12/16 03:14:41;;;;;;;15.45;9.05;;;;;;;2.34;57.32;101789.09;7739642;32;40151;-81
2023/12/16 03:18:57;;;;;;;14.25;8.27;;;;;;;2.10;57.80;101806.06;7739606;32;40437;-81
2023/12/16 03:23:14;;;;;;;16.73;9.07;;;;;;;2.27;57.19;101812.28;7739539;32;38672;-80
2023/12/16 03:27:30;;;;;;;17.60;9.25;;;;;;;2.09;57.28;101815.12;7739360;32;37045;-81
2023/12/16 03:31:47;;;;;;;15.43;8.68;;;;;;;1.98;57.85;101818.97;7739402;32;40018;-80
2023/12/16 03:36:03;;;;;;;14.70;8.77;;;;;;;2.07;58.01;101836.84;7727035;32;40033;-80
2023/12/16 03:40:20;;;;;;;18.10;8.70;;;;;;;2.11;57.83;101846.25;7712576;32;37713;-80
2023/12/16 03:44:36;;;;;;;14.13;7.93;;;;;;;2.15;57.54;101852.16;7712460;32;37129;-80
2023/12/16 03:48:52;;;;;;;15.30;8.27;;;;;;;1.80;58.40;101857.63;7712461;32;39308;-79
2023/12/16 03:53:09;;;;;;;13.27;7.93;;;;;;;1.94;57.95;101858.81;7716323;32;39899;-80
2023/12/16 03:57:25;;;;;;;19.12;9.00;;;;;;;1.78;58.43;101853.41;7737945;32;38512;-81
2023/12/16 04:01:45;;;;;;;18.33;9.50;;;;;;;1.71;58.46;101855.91;7735906;32;37058;-81
2023/12/16 04:06:01;;;;;;;16.73;9.25;;;;;;;1.85;58.42;101862.50;7739096;32;39067;-81
2023/12/16 04:10:18;;;;;;;15.77;8.48;;;;;;;1.88;58.23;101876.47;7714460;32;40858;-81
2023/12/16 04:14:38;;;;;;;17.02;8.88;;;;;;;1.52;59.57;101872.28;7712072;32;38740;-80
2023/12/16 04:18:55;;;;;;;21.17;10.35;;;;;;;1.83;58.52;101884.19;7712113;32;37912;-80
2023/12/16 04:23:11;;;;;;;20.92;9.77;;;;;;;1.69;58.84;101890.16;7712036;32;40128;-81
2023/12/16 04:27:28;;;;;;;21.98;10.10;;;;;;;1.71;58.87;101896.25;7711957;32;39990;-81
2023/12/16 04:31:45;;;;;;;16.98;9.70;;;;;;;1.91;58.41;101888.75;7711820;32;38854;-80
2023/12/16 04:36:02;;;;;;;17.85;9.40;;;;;;;1.62;59.03;101889.12;7711871;32;38016;-81
2023/12/16 04:40:18;;;;;;;17.75;9.68;;;;;;;1.50;59.27;101897.50;7711798;32;40127;-79
2023/12/16 04:44:35;;;;;;;24.02;11.50;;;;;;;1.48;59.57;101896.81;7719480;32;40087;-81
2023/12/16 04:48:51;;;;;;;27.27;12.90;;;;;;;1.39;59.75;101905.81;7742340;32;38120;-80
2023/12/16 04:53:07;;;;;;;23.83;12.45;;;;;;;1.53;59.23;101903.53;7732801;32;36903;-80
2023/12/16 04:57:24;;;;;;;20.40;10.82;;;;;;;1.61;59.03;101903.59;7711664;32;39340;-80
2023/12/16 05:01:40;;;;;;;21.17;10.43;;;;;;;1.66;58.86;101903.97;7711481;32;40754;-79
2023/12/16 05:05:57;;;;;;;20.80;11.23;;;;;;;1.58;59.11;101914.66;7711728;32;38071;-81
2023/12/16 05:10:13;;;;;;;19.25;10.13;;;;;;;1.55;59.46;101912.28;7713020;32;35838;-81
2023/12/16 05:14:30;;;;;;;17.98;10.32;;;;;;;1.56;59.55;101906.75;7711773;32;39360;-81
2023/12/16 05:18:46;;;;;;;19.92;9.93;;;;;;;1.44;59.74;101906.19;7711642;32;40973;-81
2023/12/16 05:23:03;;;;;;;19.92;9.98;;;;;;;1.29;60.26;101908.66;7711352;32;38069;-81
2023/12/16 05:27:19;;;;;;;18.50;9.63;;;;;;;1.46;60.15;101925.69;7722021;32;37206;-80
2023/12/16 05:31:35;;;;;;;18.45;9.57;;;;;;;1.22;61.00;101917.47;7728211;32;39001;-80
2023/12/16 05:35:52;;;;;;;17.60;9.93;;;;;;;1.21;60.95;101926.53;7711073;32;39911;-81
2023/12/16 05:40:09;;;;;;;18.55;9.63;;;;;;;1.19;60.77;101931.22;7711157;32;38693;-81
2023/12/16 05:44:25;;;;;;;19.55;10.85;;;;;;;1.44;60.23;101932.22;7710894;32;37946;-81
2023/12/16 05:48:41;;;;;;;21.17;10.77;;;;;;;1.40;60.02;101931.72;7710826;32;39046;-82
2023/12/16 05:52:57;;;;;;;20.02;10.35;;;;;;;1.11;60.91;101929.34;7716612;32;40541;-80
2023/12/16 05:57:14;;;;;;;19.75;10.43;;;;;;;1.41;60.22;101936.06;7737428;32;38724;-81
2023/12/16 06:01:30;;;;;;;17.23;10.05;;;;;;;1.23;60.10;101930.75;7729457;32;38070;-79
2023/12/16 06:05:47;;;;;;;18.45;9.93;;;;;;;1.40;59.61;101933.56;7723171;32;39404;-80
2023/12/16 06:10:04;;;;;;;14.50;9.00;;;;;;;1.65;59.07;101938.06;7710348;32;40141;-80
2023/12/16 06:14:23;;;;;;;15.90;9.45;;;;;;;1.59;59.51;101936.00;7718611;32;38700;-80
2023/12/16 06:18:39;;;;;;;19.77;10.60;;;;;;;1.50;59.98;101945.87;7710103;32;37212;-80
2023/12/16 06:22:56;;;;;;;20.02;10.63;;;;;;;1.71;59.80;101946.47;7710071;32;39464;-81
2023/12/16 06:27:12;;;;;;;18.50;9.55;;;;;;;1.86;59.79;101943.03;7712431;32;40966;-81
2023/12/16 06:31:28;;;;;;;20.48;10.50;;;;;;;1.67;60.89;101945.97;7713227;32;37903;-79
2023/12/16 06:35:45;;;;;;;21.60;10.55;;;;;;;1.44;61.35;101948.37;7713149;32;37975;-80
2023/12/16 06:40:03;;;;;;;17.98;11.05;;;;;;;1.36;61.53;101953.69;7713197;32;39012;-80
2023/12/16 06:44:19;;;;;;;15.80;9.35;;;;;;;1.45;61.28;101967.03;7713004;32;39655;-78
2023/12/16 06:48:36;;;;;;;17.00;9.32;;;;;;;1.43;61.34;101977.09;7724331;32;38467;-81
2023/12/16 06:52:52;;;;;;;17.73;10.35;;;;;;;1.38;61.59;102002.75;7739880;32;37152;-79
2023/12/16 06:57:08;;;;;;;27.40;12.20;;;;;;;1.55;61.04;101993.78;7739860;32;39389;-79
2023/12/16 07:01:25;;;;;;;23.50;11.18;;;;;;;1.65;60.68;101999.06;7739410;32;39993;-79
2023/12/16 07:05:41;;;;;;;24.52;11.48;;;;;;;1.72;60.78;102010.88;7739666;32;38512;-80
2023/12/16 07:09:58;;;;;;;20.77;11.38;;;;;;;1.42;61.66;102020.25;7739586;32;37322;-80
2023/12/16 07:14:14;;;;;;;19.27;10.55;;;;;;;1.44;61.50;102031.69;7739622;32;40189;-79
2023/12/16 07:18:31;;;;;;;19.12;10.95;;;;;;;1.66;61.22;102028.47;7739443;32;40877;-79
2023/12/16 07:22:47;;;;;;;18.70;10.85;;;;;;;1.64;61.57;102026.97;7739490;32;38637;-76
2023/12/16 07:27:04;;;;;;;23.35;11.85;;;;;;;1.39;61.80;102016.03;7739220;32;37091;-76
2023/12/16 07:31:20;;;;;;;22.48;13.15;;;;;;;1.41;64.09;102013.19;7739452;32;40129;-78
2023/12/16 07:35:38;;;;;;;20.83;12.23;;;;;;;1.83;63.02;102024.06;7738880;32;39951;-77
2023/12/16 07:39:55;;;;;;;25.20;12.15;;;;;;;2.03;61.37;102021.97;7739134;32;39470;-76
2023/12/16 07:44:11;;;;;;;18.17;10.68;;;;;;;2.17;60.80;102030.44;7739175;32;37061;-76
2023/12/16 07:48:28;;;;;;;23.38;12.18;;;;;;;2.22;60.88;102036.19;7739121;32;39239;-76
2023/12/16 07:52:46;;;;;;;20.98;11.20;;;;;;;2.58;60.11;102044.88;7738954;32;40946;-76
2023/12/16 07:57:03;;;;;;;20.50;11.20;;;;;;;2.72;59.88;102034.50;7739009;32;37976;-78
2023/12/16 08:01:20;;;;;;;24.02;12.35;;;;;;;2.96;59.51;102026.44;7739030;32;36909;-77
2023/12/16 08:05:38;;;;;;;19.45;11.20;;;;;;;3.11;59.67;102033.87;7738879;32;40018;-76
2023/12/16 08:09:54;;;;;;;22.77;11.05;;;;;;;3.42;60.08;102031.34;7738752;32;40155;-80
2023/12/16 08:14:12;;;;;;;22.02;11.85;;;;;;;3.84;60.17;102043.75;7738661;32;37951;-80
2023/12/16 08:18:29;;;;;;;24.20;13.18;;;;;;;4.47;59.39;102047.44;7738684;32;37133;-80
2023/12/16 08:22:45;;;;;;;25.50;13.20;;;;;;;4.71;57.26;102045.62;7738778;32;39249;-80
2023/12/16 08:27:02;;;;;;;23.50;13.23;;;;;;;4.91;57.71;102050.56;7737240;32;40539;-79
2023/12/16 08:31:18;;;;;;;22.67;11.88;;;;;;;5.13;57.89;102049.72;7737350;32;38809;-79
2023/12/16 08:35:36;;;;;;;30.45;17.05;;;;;;;5.12;56.88;102047.22;7738572;32;37340;-79
2023/12/16 08:39:53;;;;;;;21.37;12.43;;;;;;;5.55;55.77;102052.94;7737357;32;39815;-79
2023/12/16 08:44:09;;;;;;;26.45;14.15;;;;;;;5.50;56.51;102048.06;7738552;32;39944;-79
2023/12/16 08:48:26;;;;;;;28.17;15.95;;;;;;;5.96;55.67;102042.56;7737340;32;38552;-79
2023/12/16 08:52:42;;;;;;;23.95;12.98;;;;;;;5.93;54.47;102042.06;7738326;32;37144;-79
2023/12/16 08:57:01;;;;;;;25.33;13.62;;;;;;;5.20;56.36;102044.44;7738363;32;40041;-79
2023/12/16 09:01:18;;;;;;;25.30;13.02;;;;;;;5.02;56.32;102047.47;7738222;32;40508;-79
2023/12/16 09:05:36;;;;;;;25.02;13.18;;;;;;;4.56;57.87;102055.50;7738298;32;38791;-79
2023/12/16 09:09:53;;;;;;;23.27;13.32;;;;;;;4.94;57.20;102040.22;7738284;32;37434;-79
2023/12/16 09:14:10;;;;;;;23.58;12.77;;;;;;;5.13;56.80;102041.62;7738258;32;40081;-79
2023/12/16 09:18:26;;;;;;;21.67;12.10;;;;;;;5.36;56.67;102046.16;7737917;32;40867;-79
2023/12/16 09:22:42;;;;;;;25.17;13.27;;;;;;;5.45;55.48;102040.50;7738032;32;38058;-78
2023/12/16 09:26:59;;;;;;;28.45;14.98;;;;;;;5.48;55.94;102044.72;7737937;32;37331;-77
2023/12/16 09:31:16;;;;;;;24.92;14.73;;;;;;;5.42;56.16;102040.03;7737739;32;39089;-77
2023/12/16 09:35:33;;;;;;;25.58;14.20;;;;;;;5.58;55.67;102034.47;7736530;32;39969;-78
2023/12/16 09:39:49;;;;;;;26.02;14.80;;;;;;;5.83;55.40;102039.66;7737336;32;37742;-78
2023/12/16 09:44:07;;;;;;;31.25;15.75;;;;;;;5.96;54.79;102042.56;7737245;32;36953;-79
2023/12/16 09:48:23;;;;;;;29.33;15.95;;;;;;;6.17;54.92;102038.28;7737020;32;40223;-79
2023/12/16 09:52:39;;;;;;;29.67;15.68;;;;;;;6.32;54.35;102039.09;7735718;32;40527;-79
2023/12/16 09:56:57;;;;;;;23.38;14.38;;;;;;;6.59;53.14;102031.31;7735612;32;38518;-78
2023/12/16 10:01:16;;;;;;;26.25;14.43;;;;;;;6.84;53.14;102026.37;7735520;32;36688;-79
2023/12/16 10:05:34;;;;;;;25.80;14.60;;;;;;;7.43;51.27;102033.37;7737182;32;39322;-78
2023/12/16 10:09:50;;;;;;;24.67;13.70;;;;;;;7.48;50.88;102024.66;7735943;32;40892;-78
2023/12/16 10:14:07;;;;;;;23.42;12.75;;;;;;;7.49;50.99;102016.34;7737015;32;38753;-78
2023/12/16 10:18:28;;;;;;;25.23;12.73;;;;;;;7.33;50.50;102012.03;7736978;32;37781;-78
2023/12/16 10:22:45;;;;;;;22.60;11.43;;;;;;;7.64;50.96;102018.09;7736931;32;39313;-78
2023/12/16 10:27:04;;;;;;;25.60;12.77;;;;;;;7.40;50.69;102006.66;7735824;32;39788;-79
2023/12/16 10:31:24;;;;;;;20.23;10.90;;;;;;;7.45;50.64;101990.63;7736636;32;37923;-78
2023/12/16 10:35:42;;;;;;;19.17;10.23;;;;;;;7.52;50.67;101986.09;7736547;32;37299;-78
2023/12/16 10:39:58;;;;;;;19.50;10.90;;;;;;;7.65;50.52;101982.63;7736479;32;39376;-80
2023/12/16 10:44:15;;;;;;;20.52;10.45;;;;;;;7.78;50.46;101987.31;7736254;32;40906;-80
2023/12/16 10:48:35;;;;;;;20.30;10.32;;;;;;;7.98;49.90;101986.56;7736112;32;38435;-81
2023/12/16 10:52:55;;;;;;;21.33;11.50;;;;;;;7.61;49.97;101992.19;7736164;32;38009;-81
2023/12/16 10:57:30;;;;;;;19.05;10.57;;;;;;;7.75;50.50;101990.41;7736163;32;39641;-81
2023/12/16 11:01:55;;;;;;;19.15;10.80;;;;;;;8.31;48.79;101992.16;7734523;32;39911;-81
2023/12/16 11:06:25;;;;;;;19.77;11.05;;;;;;;8.23;49.76;101990.47;7735858;32;38579;-81
2023/12/16 11:10:42;;;;;;;18.37;9.98;;;;;;;8.10;50.01;101984.97;7736421;32;37942;-81
2023/12/16 11:14:58;;;;;;;19.62;10.25;;;;;;;8.07;49.52;101980.78;7739782;32;39437;-79
2023/12/16 11:19:15;;;;;;;18.90;10.10;;;;;;;8.23;50.01;101993.19;7738330;32;40809;-79
2023/12/16 11:23:34;;;;;;;19.70;10.88;;;;;;;8.15;51.02;102001.50;7738294;32;38006;-80
2023/12/16 11:27:55;;;;;;;18.30;9.55;;;;;;;8.12;51.42;101999.19;7739455;32;36219;-79
2023/12/16 11:32:11;;;;;;;20.05;9.60;;;;;;;8.69;50.15;101988.12;7738804;32;39911;-70
2023/12/16 11:36:50;;;;;;;18.02;9.73;;;;;;;8.82;52.25;101988.16;7738173;32;39591;-80
2023/12/16 11:41:06;;;;;;;18.77;10.02;;;;;;;8.96;48.53;101984.41;7739123;32;38130;-79
2023/12/16 11:45:39;;;;;;;23.30;10.43;;;;;;;9.15;48.62;101971.88;7738956;32;37965;-79
2023/12/16 11:49:57;;;;;;;18.52;10.00;;;;;;;8.31;51.49;101980.44;7739060;32;40168;-79
2023/12/16 11:54:13;;;;;;;23.48;9.98;;;;;;;8.86;50.37;101975.00;7739120;32;40278;-79
2023/12/16 11:58:30;;;;;;;21.60;11.20;;;;;;;8.89;48.98;101972.69;7738946;32;37657;-79
2023/12/16 12:02:50;;;;;;;15.13;8.27;;;;;;;8.93;49.39;101973.94;7738333;32;37287;-80
2023/12/16 12:07:07;;;;;;;29.80;12.98;;;;;;;8.52;49.48;101966.78;7739090;32;40107;-80
2023/12/16 12:11:23;;;;;;;20.80;10.45;;;;;;;8.74;49.99;101963.88;7738713;32;40533;-79
2023/12/16 12:15:40;;;;;;;20.20;10.35;;;;;;;8.50;50.33;101963.41;7738808;32;38693;-80
2023/12/16 12:19:56;;;;;;;25.02;11.98;;;;;;;8.51;49.99;101966.97;7738749;32;38073;-79
2023/12/16 12:24:13;;;;;;;20.73;10.65;;;;;;;9.53;48.45;101962.22;7738214;32;39275;-80
2023/12/16 12:28:29;;;;;;;26.77;13.13;;;;;;;9.27;49.35;101944.88;7721627;32;40183;-80
2023/12/16 12:32:46;;;;;;;18.92;9.93;;;;;;;9.11;49.77;101937.97;7711760;32;37691;-79
2023/12/16 12:37:02;;;;;;;19.23;10.70;;;;;;;9.66;48.64;101929.53;7720499;32;38002;-79
2023/12/16 12:41:19;;;;;;;22.20;11.57;;;;;;;9.44;48.00;101934.38;7711747;32;39297;-80
2023/12/16 12:45:36;;;;;;;20.65;10.75;;;;;;;8.75;50.19;101932.94;7711639;32;39831;-78
2023/12/16 12:49:53;;;;;;;22.00;10.98;;;;;;;9.06;49.45;101918.72;7717482;32;38709;-79
2023/12/16 12:54:10;;;;;;;22.70;10.90;;;;;;;8.54;50.61;101926.62;7738521;32;38642;-78
2023/12/16 12:58:30;;;;;;;23.95;12.75;;;;;;;8.16;51.98;101924.38;7738248;32;40112;-81
2023/12/16 13:02:46;;;;;;;34.67;16.10;;;;;;;7.78;53.10;101919.41;7738116;32;39673;-80
2023/12/16 13:07:03;;;;;;;23.62;12.37;;;;;;;7.72;53.22;101928.34;7738265;32;38780;-80
2023/12/16 13:11:19;;;;;;;31.12;15.43;;;;;;;7.92;53.60;101920.31;7730085;32;166741;-82
2023/12/16 13:15:36;;;;;;;22.35;12.10;;;;;;;8.34;52.54;101925.69;7719871;32;39384;-82
2023/12/16 13:20:11;;;;;;;24.00;12.23;;;;;;;8.66;51.29;101913.25;7690946;32;40996;-83
2023/12/16 13:24:30;;;;;;;21.87;11.43;;;;;;;7.18;55.42;101920.91;7684599;32;38556;-81
2023/12/16 13:28:47;;;;;;;21.62;11.85;;;;;;;6.89;56.22;101922.75;7684404;32;37946;-80
2023/12/16 13:33:04;;;;;;;41.88;20.37;;;;;;;6.80;57.01;101923.94;7727099;32;39483;-85
2023/12/16 13:37:21;;;;;;;28.75;13.95;;;;;;;6.76;56.63;101921.63;7737667;32;40713;-83
2023/12/16 13:41:37;;;;;;;25.42;13.32;;;;;;;7.04;56.14;101920.81;7727780;32;38747;-82
2023/12/16 13:45:53;;;;;;;28.27;16.33;;;;;;;6.60;57.75;101916.44;7710646;32;36935;-82
2023/12/16 13:50:10;;;;;;;25.80;14.18;;;;;;;6.92;56.96;101914.25;7710834;32;40081;-82
2023/12/16 13:54:27;;;;;;;25.02;13.00;;;;;;;6.84;57.50;101903.53;7710648;32;40533;-85
2023/12/16 13:58:44;;;;;;;25.10;12.85;;;;;;;6.66;57.95;101915.69;7713418;32;38660;-83
2023/12/16 14:03:00;;;;;;;22.83;12.18;;;;;;;6.89;58.91;101917.34;7710024;32;38122;-79
2023/12/16 14:07:17;;;;;;;21.75;11.95;;;;;;;7.03;57.95;101913.69;7710481;32;40223;-81
2023/12/16 14:11:33;;;;;;;24.15;12.00;;;;;;;6.61;58.02;101904.56;7717197;32;40605;-81
2023/12/16 14:15:50;;;;;;;25.90;12.40;;;;;;;7.03;57.09;101918.28;7709690;32;38021;-80
2023/12/16 14:20:07;;;;;;;23.30;12.13;;;;;;;6.16;59.76;101914.72;7736071;32;37249;-80
2023/12/16 14:24:23;;;;;;;23.60;12.93;;;;;;;6.32;58.88;101919.06;7736991;32;38978;-79
2023/12/16 14:28:40;;;;;;;24.42;12.88;;;;;;;6.58;58.21;101915.81;7735499;32;39637;-79
2023/12/16 14:32:56;;;;;;;24.00;12.95;;;;;;;6.75;57.52;101917.22;7736503;32;37856;-80
2023/12/16 14:37:12;;;;;;;31.85;15.35;;;;;;;6.61;57.70;101926.25;7736523;32;37151;-80
2023/12/16 14:41:29;;;;;;;32.10;16.42;;;;;;;6.79;57.33;101922.25;7736622;32;40216;-80
2023/12/16 14:45:45;;;;;;;28.05;16.42;;;;;;;6.67;57.55;101916.50;7737092;32;39725;-80
2023/12/16 14:50:02;;;;;;;33.25;17.55;;;;;;;6.49;58.01;101919.69;7739671;32;37660;-80
2023/12/16 14:54:19;;;;;;;35.30;18.08;;;;;;;6.69;57.35;101933.41;7739839;32;38085;-80
2023/12/16 14:58:36;;;;;;;30.50;16.30;;;;;;;6.55;57.74;101946.00;7739740;32;39415;-80
2023/12/16 15:02:54;;;;;;;31.00;16.65;;;;;;;6.46;58.00;101939.03;7739422;32;40070;-80
2023/12/16 15:07:11;;;;;;;29.65;16.12;;;;;;;6.33;58.35;101932.44;7739786;32;38843;-80
2023/12/16 15:11:27;;;;;;;30.20;17.55;;;;;;;6.29;58.49;101933.00;7739499;32;37916;-80
2023/12/16 15:15:44;;;;;;;31.65;17.52;;;;;;;6.36;58.38;101929.34;7739614;32;39102;-80
2023/12/16 15:20:00;;;;;;;49.08;24.02;;;;;;;6.03;59.69;101933.53;7739315;32;39890;-80
2023/12/16 15:24:17;;;;;;;33.72;18.85;;;;;;;6.15;59.58;101927.41;7739345;32;38739;-80
2023/12/16 15:28:33;;;;;;;33.45;17.77;;;;;;;6.07;60.13;101930.25;7739388;32;36938;-79
2023/12/16 15:32:49;;;;;;;30.37;16.75;;;;;;;6.21;59.93;101936.66;7739327;32;39339;-80
2023/12/16 15:37:06;;;;;;;36.80;17.55;;;;;;;6.25;59.56;101927.12;7734606;32;40048;-80
2023/12/16 15:41:30;;;;;;;29.15;16.45;;;;;;;6.12;59.95;101926.97;7725613;32;38098;-79
2023/12/16 15:45:46;;;;;;;28.80;15.48;;;;;;;6.11;59.83;101925.28;7728446;32;37275;-82
2023/12/16 15:50:04;;;;;;;29.75;16.70;;;;;;;6.20;59.58;101930.41;7724959;32;40092;-79
2023/12/16 15:54:20;;;;;;;31.42;16.65;;;;;;;5.80;61.38;101931.75;7703486;32;39702;-79
2023/12/16 15:58:37;;;;;;;31.23;16.62;;;;;;;5.79;61.15;101938.19;7698936;32;38040;-79
2023/12/16 16:02:55;;;;;;;32.92;16.75;;;;;;;5.80;60.66;101939.88;7711842;32;38007;-79
2023/12/16 16:07:12;;;;;;;33.67;17.87;;;;;;;5.82;60.44;101938.63;7712098;32;40154;-79
2023/12/16 16:11:29;;;;;;;33.83;19.95;;;;;;;5.90;60.68;101937.72;7711988;32;39944;-79
2023/12/16 16:15:45;;;;;;;35.45;17.02;;;;;;;5.90;60.92;101940.41;7710755;32;37881;-80
2023/12/16 16:20:07;;;;;;;28.10;14.60;;;;;;;5.78;61.24;101947.34;7711985;32;37063;-79
2023/12/16 16:24:23;;;;;;;43.05;21.40;;;;;;;5.82;61.20;101944.03;7715421;32;39819;-81
2023/12/16 16:28:41;;;;;;;32.58;15.60;;;;;;;5.80;61.43;101951.53;7711845;32;40902;-80
2023/12/16 16:32:57;;;;;;;26.30;15.07;;;;;;;5.76;61.45;101957.50;7711442;32;37990;-80
2023/12/16 16:37:13;;;;;;;27.92;15.75;;;;;;;5.74;61.08;101960.38;7710586;32;36895;-80
2023/12/16 16:41:30;;;;;;;32.58;17.75;;;;;;;5.82;61.06;101954.03;7725923;32;40161;-80
2023/12/16 16:45:47;;;;;;;31.50;16.48;;;;;;;5.89;61.82;101951.44;7738247;32;40003;-80
2023/12/16 16:50:08;;;;;;;27.55;15.38;;;;;;;5.93;61.33;101950.88;7733749;32;38760;-85
2023/12/16 16:54:30;;;;;;;28.73;15.35;;;;;;;5.97;60.96;101949.50;7711772;32;37470;-85
2023/12/16 16:58:48;;;;;;;33.40;15.68;;;;;;;6.08;59.79;101952.75;7705274;32;38397;-85
2023/12/16 17:03:06;;;;;;;29.77;15.95;;;;;;;5.84;60.21;101960.09;7710069;32;39575;-84
2023/12/16 17:07:23;;;;;;;27.52;16.58;;;;;;;5.83;60.93;101971.97;7710727;32;37800;-82
2023/12/16 17:11:44;;;;;;;34.83;17.60;;;;;;;5.43;62.20;101976.78;7710527;32;36918;-82
2023/12/16 17:16:07;;;;;;;28.10;17.05;;;;;;;5.53;62.01;101984.62;7710646;32;39217;-83
2023/12/16 17:20:27;;;;;;;34.63;17.20;;;;;;;5.57;62.88;101991.34;7710890;32;40941;-83
2023/12/16 17:24:46;;;;;;;30.23;16.30;;;;;;;5.49;63.85;101996.88;7710584;32;38791;-84
2023/12/16 17:29:06;;;;;;;32.80;17.27;;;;;;;5.73;63.28;101990.38;7711005;32;37351;-83
2023/12/16 17:33:25;;;;;;;31.75;17.20;;;;;;;5.77;62.95;101987.06;7710804;32;38929;-84
2023/12/16 17:37:45;;;;;;;29.60;16.55;;;;;;;5.79;62.80;101993.13;7710927;32;39883;-83
2023/12/16 17:42:04;;;;;;;32.78;15.82;;;;;;;5.74;62.91;101995.56;7710805;32;37919;-83
2023/12/16 17:46:21;;;;;;;30.25;16.12;;;;;;;5.64;63.37;101990.44;7710803;32;37775;-83
2023/12/16 17:50:38;;;;;;;28.23;15.93;;;;;;;5.84;62.75;101998.00;7709725;32;40231;-82
2023/12/16 17:54:54;;;;;;;29.98;16.58;;;;;;;5.91;62.45;101996.22;7710806;32;40032;-79
2023/12/16 17:59:11;;;;;;;30.37;15.57;;;;;;;5.84;62.57;101995.31;7710598;32;38785;-79
2023/12/16 18:03:28;;;;;;;27.45;15.82;;;;;;;5.82;62.72;102002.78;7710454;32;37283;-79
2023/12/16 18:07:44;;;;;;;30.85;16.50;;;;;;;6.01;62.05;102002.22;7710465;32;40164;-79
2023/12/16 18:12:00;;;;;;;27.70;16.67;;;;;;;5.83;61.94;102001.75;7726113;32;40823;-79
2023/12/16 18:16:17;;;;;;;30.17;16.83;;;;;;;5.86;61.47;102001.34;7736897;32;38748;-79
2023/12/16 18:20:33;;;;;;;33.60;16.67;;;;;;;5.58;62.40;102001.16;7726655;32;38039;-79
2023/12/16 18:24:51;;;;;;;31.65;15.77;;;;;;;5.62;62.09;102005.16;7718924;32;40189;-79
2023/12/16 18:29:07;;;;;;;37.70;17.15;;;;;;;5.64;62.28;102011.25;7745036;32;39986;-78
2023/12/16 18:33:24;;;;;;;27.00;15.07;;;;;;;5.81;61.59;102017.31;7745409;32;38443;-79
2023/12/16 18:37:42;;;;;;;28.12;14.85;;;;;;;5.46;61.96;102020.53;7745516;32;37377;-79
2023/12/16 18:41:59;;;;;;;31.70;14.73;;;;;;;5.48;61.58;102016.81;7745396;32;38739;-80
2023/12/16 18:46:15;;;;;;;24.55;13.48;;;;;;;5.19;62.01;102024.69;7745297;32;39890;-81
2023/12/16 18:50:32;;;;;;;26.30;12.68;;;;;;;5.03;62.47;102033.75;7744924;32;37916;-80
2023/12/16 18:54:49;;;;;;;20.70;11.63;;;;;;;5.14;62.19;102024.38;7756538;32;37262;-80
2023/12/16 18:59:05;;;;;;;26.00;12.30;;;;;;;5.44;61.28;102021.75;7735855;32;39378;-81
2023/12/16 19:03:21;;;;;;;27.80;14.65;;;;;;;5.23;62.43;102028.69;7717673;32;40723;-83
2023/12/16 19:07:38;;;;;;;22.40;12.15;;;;;;;5.21;62.56;102033.44;7717808;32;37810;-82
2023/12/16 19:11:55;;;;;;;21.70;11.60;;;;;;;5.16;62.83;102033.16;7723729;32;38170;-80
2023/12/16 19:16:11;;;;;;;21.65;11.88;;;;;;;5.49;61.23;102034.75;7744570;32;39442;-79
2023/12/16 19:20:27;;;;;;;20.60;11.82;;;;;;;5.14;61.15;102043.31;7744418;32;39640;-81
2023/12/16 19:24:45;;;;;;;24.12;13.00;;;;;;;4.92;61.31;102041.44;7722939;32;38271;-83
2023/12/16 19:29:01;;;;;;;23.48;12.13;;;;;;;5.03;61.64;102046.41;7716619;32;37269;-83
2023/12/16 19:33:17;;;;;;;23.08;12.13;;;;;;;5.02;62.04;102045.59;7713446;32;39466;-83
2023/12/16 19:37:34;;;;;;;24.20;12.73;;;;;;;4.70;63.62;102042.06;7711950;32;40980;-83
2023/12/16 19:41:52;;;;;;;22.62;12.65;;;;;;;5.00;63.03;102042.22;7711676;32;38737;-79
2023/12/16 19:46:10;;;;;;;23.62;11.98;;;;;;;5.11;62.26;102046.38;7712439;32;37413;-81